Aérodrome :
LOGIN :

S'inscrire | Disclaimer

   EN    FR    IT 

 










Légende :    VFR   VFR Marginal   IFR   IFR Intensif   IFR Très Intensif
Visi : 
Plafond : 
>= 8 km
>= 3000ft
5 à 8 km
1000 à 3000 ft
1500m à 5 km
500 à 1000 ft
800 à 1500m
200 à 500 ft
< 800m
< 200 ft
Symboles :   Orages  Brouillard  Fortes neiges  Fortes précipitations  Vent > 20 kt
SIGMETs :   Divers  Orages  Givrage  Turbulence  Onde Orograph.  Cendres Volcan.






- Altitude de l'aérodrome : 1325 ft
- Code IATA : EBU


LFMH - St-Etienne Boutheon

DERNIER METAR :
  • 071430Z AUTO 36004KT 320V020 9999 SCT042 OVC050 11/07 Q1020 NOSIG

METARs EXPIRÉS :
  • 071400Z AUTO VRB03KT 9999 BKN041 BKN047 OVC054 12/05 Q1020 NOSIG
  • 071330Z AUTO 19004KT 140V220 9999 BKN047 OVC054 13/05 Q1020 NOSIG
  • 071300Z AUTO 19005KT 9999 OVC050 12/05 Q1020 NOSIG
  • 071230Z AUTO 21004KT 180V260 9999 SCT044 OVC050 12/04 Q1021 NOSIG
  • 071200Z AUTO 18005KT 9999 OVC049 12/05 Q1021 NOSIG

TAF TAF LFMH
Valide du 07 à 15h jusqu'au 08 à 15h UTC


071400Z 0715/0815 18008KT 9999 BKN040
BECMG 0806/0809 CAVOK
TEMPO 0813/0815 -RA BKN030
ATIS : +33 4 77 36 17 51



MET'MAP, la Météo Aéronautique d'un coup d'oeil ! - Copyright ORBIFLY Décembre 2007 - Disclaimer

ORBIFLY MET'MAP TEAM :

Programmation & Développement : Alexandra Zaïnal
Sur une idée originale de : Baudouin d'Aumeries
Assistance à la programmation : Marc-Olivier Méhu
Soutien technique & logistique : Manuel Goepfert

Contact : metmap@orbifly.com




SOURCES & CREDITS :

   NOAA